TimePST,TemperatureF,Dew PointF,Humidity,Sea Level PressureIn,VisibilityMPH,Wind Direction,Wind SpeedMPH,Gust SpeedMPH,PrecipitationIn,Events,Conditions,WindDirDegrees,DateUTC
12:53 AM,39.9,34.0,79,29.83,10.0,SSE,11.5,20.7,0.01,Rain,Light Rain,150,2012-11-19 08:53:00
1:53 AM,39.9,35.1,83,29.83,10.0,South,12.7,19.6,0.00,Rain,Light Rain,170,2012-11-19 09:53:00
2:22 AM,39.2,35.6,87,29.81,6.0,SSE,11.5,-,0.05,Rain,Rain,160,2012-11-19 10:22:00
2:53 AM,39.9,39.0,97,29.85,7.0,South,9.2,24.2,0.11,Rain,Light Rain,170,2012-11-19 10:53:00
3:53 AM,41.0,39.2,93,29.80,10.0,SSE,10.4,-,N/A,Rain,Light Rain,150,2012-11-19 11:53:00
4:53 AM,41.0,39.9,96,29.83,10.0,SSE,12.7,24.2,0.04,Rain,Light Rain,160,2012-11-19 12:53:00
5:33 AM,39.2,39.2,100,29.79,7.0,SSE,15.0,24.2,0.01,Rain,Light Rain,160,2012-11-19 13:33:00
5:53 AM,39.9,39.9,100,29.82,8.0,SSE,16.1,24.2,0.03,Rain,Light Rain,160,2012-11-19 13:53:00
6:32 AM,39.2,39.2,100,29.79,5.0,SSE,18.4,27.6,0.03,Rain,Rain,160,2012-11-19 14:32:00
6:53 AM,41.0,39.9,96,29.82,8.0,SSE,17.3,24.2,0.06,Rain,Light Rain,160,2012-11-19 14:53:00
7:18 AM,39.2,39.2,100,29.79,6.0,SSE,17.3,25.3,0.03,Rain,Light Rain,160,2012-11-19 15:18:00
7:53 AM,41.0,41.0,100,29.81,7.0,SSE,15.0,24.2,0.06,Rain,Light Rain,150,2012-11-19 15:53:00
8:53 AM,42.1,42.1,100,29.81,8.0,SSE,18.4,27.6,0.04,Rain,Light Rain,150,2012-11-19 16:53:00
9:53 AM,43.0,43.0,100,29.80,9.0,SSE,18.4,25.3,0.03,Rain,Light Rain,160,2012-11-19 17:53:00
10:53 AM,48.0,41.0,77,29.77,10.0,SSE,18.4,26.5,0.01,Rain,Light Rain,150,2012-11-19 18:53:00
11:53 AM,46.0,39.9,79,29.75,10.0,SSE,17.3,25.3,0.01,Rain,Light Rain,150,2012-11-19 19:53:00
12:53 PM,48.0,39.9,74,29.72,10.0,SSE,20.7,31.1,0.00,,Overcast,150,2012-11-19 20:53:00
1:53 PM,48.0,39.9,74,29.70,10.0,SSE,19.6,29.9,0.00,Rain,Light Rain,160,2012-11-19 21:53:00
2:53 PM,46.9,41.0,80,29.70,8.0,SSE,16.1,28.8,0.04,Rain,Light Rain,160,2012-11-19 22:53:00
3:53 PM,46.9,42.1,83,29.69,7.0,South,19.6,27.6,0.05,Rain,Light Rain,170,2012-11-19 23:53:00
4:53 PM,46.9,42.1,83,29.68,7.0,SSE,21.9,29.9,0.03,Rain,Light Rain,160,2012-11-20 00:53:00
5:53 PM,48.0,42.1,80,29.68,10.0,South,16.1,26.5,0.00,Rain,Light Rain,170,2012-11-20 01:53:00
6:53 PM,48.0,42.1,80,29.69,10.0,South,17.3,27.6,0.00,Rain,Light Rain,170,2012-11-20 02:53:00
7:53 PM,48.9,43.0,80,29.72,10.0,South,17.3,21.9,0.01,Rain,Light Rain,180,2012-11-20 03:53:00
8:18 PM,46.4,44.6,93,29.71,10.0,South,15.0,20.7,0.02,Rain,Light Rain,180,2012-11-20 04:18:00
8:53 PM,46.0,45.0,96,29.73,4.0,SSW,13.8,-,0.05,Rain,Light Rain,200,2012-11-20 04:53:00
9:16 PM,46.4,44.6,93,29.72,7.0,SSW,15.0,-,0.01,Rain,Light Rain,210,2012-11-20 05:16:00
9:53 PM,46.0,45.0,96,29.75,4.0,SW,13.8,-,0.06,Rain,Rain,220,2012-11-20 05:53:00
10:53 PM,46.0,44.1,93,29.77,7.0,SW,15.0,-,0.09,Rain,Light Rain,230,2012-11-20 06:53:00
11:53 PM,45.0,44.1,97,29.78,9.0,South,15.0,23.0,0.05,Rain,Light Rain,190,2012-11-20 07:53:00